Аэропорт: Минеральные Воды. Минеральные Воды

ICAO: URMM

METAR:
2019/05/26 14:00
URMM 261400Z 08002MPS 9999 BKN/// 20/13 Q1014 R12/090070 NOSIG RMK QFE732/0977
METAR:
2019/05/26 12:21
TAF URMM 261100Z 2612/2712 11005G12MPS 9999 BKN030 TX24/2712Z TN12/2703Z 
      TEMPO 2612/2712 VRB07G18MPS 3100 -TSRAGR BKN011 BKN030CB